Marathon, FL

10:32 PM EDT on August 29, 2015 (GMT -0400)
APRSWXNET | | Change Station
CLOSE
Current Station
Personal Weather Station
Location: Marathon, FL
Elevation: 15 ft
Nearby Weather Stations

Elev 15 ft 24.74 °N, 80.98 °W | Updated 29 minutes ago

Mostly Cloudy
Mostly Cloudy
84 °F
Feels Like 96 °F
N
2
Wind Variable Wind from NE
Gusts 8.0 mph

Today
High -- | Low -- °F
--% Chance of Precip.
Yesterday
High -- | Low -- °F
Precip. -- in
7:03 AM 7:45 PM
Full, 100% visible
Pressure 29.98 in
Visibility 1.0 miles
Clouds Scattered Clouds 1600 ft
Mostly Cloudy 2800 ft
Overcast 6000 ft
Heat Index 96 °F
Dew Point 79 °F
Humidity 86%
Rainfall in
Snow Depth Not available.
UV 0 out of 12
Pollen 5.40 out of 12
Air Quality Not available.
Flu Activity Not available.
SPECI KNQX 300223Z AUTO 04017G30KT 1SM +TSRA BR SCT016 BKN028 OVC060 24/23 A2998 RMK AO2 PK WND 06030/0216 RAB04 TSE0154B0155 T02440233 PNO $
Pressure 29.98 in
Visibility 1.0 miles
Clouds Scattered Clouds 1600 ft
Mostly Cloudy 2800 ft
Overcast 6000 ft
Heat Index 96 °F
Dew Point 79 °F
Humidity 86%
Rainfall in
Snow Depth Not available.
UV 0 out of 12
Pollen 5.40 out of 12
Air Quality Not available.
Flu Activity Not available.
SPECI KNQX 300223Z AUTO 04017G30KT 1SM +TSRA BR SCT016 BKN028 OVC060 24/23 A2998 RMK AO2 PK WND 06030/0216 RAB04 TSE0154B0155 T02440233 PNO $

10-Day Weather Forecast

×

Almanac

Astronomy

Aug. 29, 2015 Rise Set
Actual Time
Civil Twilight
Nautical Twilight
Astronomical Twilight
Moon
Length of Visible Light
Length of Day
Tomorrow will be .
, % of the Moon is Illuminated

Today's Extremes

State Highs State Lows

Community

WunderPhotos

Upload Photos

1,850,852 photos uploaded!

WunderBlogs® & News

Nearby

Air Quality

  Air Quality AQ Index Pollutant
Not available.

Snow Depth

Station Depth Elevation

Earthquake Activity

City Distance Mag. Time & Date
Minimum magnitude displayed is 2.5.

Coastal Water Temperatures

Place Temperature

Stations

Nearby Weather Stations

Station Location Temp. Windchill Dew Point Humidity Wind Precip. Elev Updated Type